| time (UTC) | temp C | wind direction | speed KPH | gust KPH | rain 1hr cm | rain 24hr cm | rain mn cm | humidity % | barometer mb |
| 20260510104000 | 19 | 200 | 6.4 | 14.5 | 0.00 | 0.00 | 0.00 | 65 | 1014.8 |
| 20260510101001 | 20 | 213 | 8.0 | 17.7 | 0.00 | 0.00 | 0.00 | 63 | 1015.0 |
| 20260510094000 | 20 | 201 | 11.3 | 24.1 | 0.00 | 0.00 | 0.00 | 61 | 1014.7 |
| 20260510091006 | 21 | 202 | 11.3 | 22.5 | 0.00 | 0.00 | 0.00 | 58 | 1014.5 |
| 20260510091000 | 21 | 202 | 11.3 | 22.5 | 0.00 | 0.00 | 0.00 | 58 | 1014.5 |
| 20260510084000 | 21 | 204 | 12.9 | 20.9 | 0.00 | 0.00 | 0.00 | 53 | 1014.3 |
| 20260510081001 | 21 | 207 | 12.9 | 22.5 | 0.00 | 0.00 | 0.00 | 48 | 1014.4 |
| 20260510074001 | 22 | 205 | 12.9 | 25.7 | 0.00 | 0.00 | 0.00 | 42 | 1014.6 |
| 20260510071001 | 22 | 203 | 12.9 | 25.7 | 0.00 | 0.00 | 0.00 | 39 | 1014.9 |
| 20260510061002 | 22 | 204 | 11.3 | 20.9 | 0.00 | 0.00 | 0.00 | 35 | 1015.0 |
| 20260510051000 | 23 | 201 | 11.3 | 24.1 | 0.00 | 0.00 | 0.00 | 32 | 1014.8 |
| 20260510044001 | 24 | 196 | 11.3 | 22.5 | 0.00 | 0.00 | 0.00 | 29 | 1014.7 |
| 20260510041001 | 25 | 199 | 11.3 | 24.1 | 0.00 | 0.00 | 0.00 | 25 | 1014.5 |
| 20260510034001 | 25 | 200 | 9.7 | 17.7 | 0.00 | 0.00 | 0.00 | 22 | 1014.4 |
| 20260510031001 | 26 | 203 | 8.0 | 12.9 | 0.00 | 0.00 | 0.00 | 20 | 1014.2 |
| 20260510024001 | 27 | 201 | 8.0 | 14.5 | 0.00 | 0.00 | 0.00 | 19 | 1014.1 |
| 20260510021001 | 28 | 206 | 8.0 | 14.5 | 0.00 | 0.00 | 0.00 | 18 | 1013.7 |
| 20260510011001 | 32 | 210 | 8.0 | 14.5 | 0.00 | 0.00 | 0.00 | 14 | 1013.0 |
| 20260510004001 | 33 | 244 | 9.7 | 17.7 | 0.00 | 0.00 | 0.00 | 12 | 1012.9 |
| 20260509234001 | 35 | 226 | 12.9 | 24.1 | 0.00 | 0.00 | 0.00 | 11 | 1013.1 |
| 20260509231001 | 35 | 246 | 9.7 | 20.9 | 0.00 | 0.00 | 0.00 | 12 | 1013.4 |
| 20260509224001 | 35 | 249 | 11.3 | 22.5 | 0.00 | 0.00 | 0.00 | 12 | 1013.7 |
| 20260509221001 | 35 | 238 | 9.7 | 25.7 | 0.00 | 0.00 | 0.00 | 12 | 1013.9 |
| 20260509214001 | 35 | 217 | 9.7 | 29.0 | 0.00 | 0.00 | 0.00 | 13 | 1014.5 |
| 20260509211001 | 35 | 256 | 12.9 | 32.2 | 0.00 | 0.00 | 0.00 | 14 | 1015.0 |
| 20260509201001 | 35 | 232 | 17.7 | 33.8 | 0.00 | 0.00 | 0.00 | 14 | 1015.7 |
| 20260509194001 | 35 | 226 | 16.1 | 33.8 | 0.00 | 0.00 | 0.00 | 15 | 1016.1 |
| 20260509191001 | 34 | 222 | 14.5 | 27.4 | 0.00 | 0.00 | 0.00 | 17 | 1016.6 |
| 20260509184001 | 33 | 221 | 16.1 | 30.6 | 0.00 | 0.00 | 0.00 | 17 | 1016.7 |
| 20260509181001 | 33 | 228 | 17.7 | 29.0 | 0.00 | 0.00 | 0.00 | 20 | 1016.9 |
| 20260509174001 | 33 | 219 | 12.9 | 24.1 | 0.00 | 0.00 | 0.00 | 21 | 1017.4 |
| 20260509171001 | 32 | 215 | 17.7 | 35.4 | 0.00 | 0.00 | 0.00 | 21 | 1017.6 |
| 20260509164001 | 31 | 212 | 16.1 | 27.4 | 0.00 | 0.00 | 0.00 | 21 | 1017.7 |
| 20260509161001 | 30 | 213 | 12.9 | 29.0 | 0.00 | 0.00 | 0.00 | 24 | 1017.7 |
| 20260509154001 | 28 | 216 | 12.9 | 25.7 | 0.00 | 0.00 | 0.00 | 26 | 1017.7 |
| 20260509144001 | 24 | 211 | 11.3 | 19.3 | 0.00 | 0.00 | 0.00 | 40 | 1018.1 |
| 20260509134000 | 18 | 202 | 6.4 | 12.9 | 0.00 | 0.00 | 0.00 | 68 | 1018.3 |
| 20260509131036 | 16 | 210 | 8.0 | 14.5 | 0.00 | 0.00 | 0.00 | 75 | 1017.9 |
| 20260509131000 | 16 | 210 | 8.0 | 14.5 | 0.00 | 0.00 | 0.00 | 75 | 1017.9 |
| 20260509124000 | 15 | 227 | 6.4 | 11.3 | 0.00 | 0.00 | 0.00 | 74 | 1017.9 |
| 20260509121000 | 15 | 211 | 6.4 | 9.7 | 0.00 | 0.00 | 0.00 | 74 | 1017.6 |
| 20260509114000 | 15 | 205 | 6.4 | 9.7 | 0.00 | 0.00 | 0.00 | 73 | 1017.2 |
| 20260509111000 | 15 | 199 | 4.8 | 9.7 | 0.00 | 0.00 | 0.00 | 71 | 1017.0 |